Time;durP1;ratioP1;P1;durP2;ratioP2;P2;SDS_P1;SDS_P2;PMS_P1;PMS_P2;Temp;Humidity;BMP_temperature;BMP_pressure;BME280_temperature;BME280_humidity;BME280_pressure;Samples;Min_cycle;Max_cycle;Signal;HPM_P1;HPM_P2
2024/03/12 00:00:28;;;;;;;22.70;10.00;;;;;;;6.15;80.19;98433.57;105608;1256;96567;-74
2024/03/12 00:03:16;;;;;;;18.30;11.20;;;;;;;6.14;80.23;98429.27;105847;1257;97264;-75
2024/03/12 00:05:44;;;;;;;16.00;9.20;;;;;;;6.13;80.46;98430.38;105202;1259;109756;-78
2024/03/12 00:08:14;;;;;;;22.00;11.30;;;;;;;6.13;80.29;98430.89;105565;1256;97609;-75
2024/03/12 00:10:43;;;;;;;22.80;11.40;;;;;;;6.13;80.23;98427.58;105431;1266;107565;-76
2024/03/12 00:13:11;;;;;;;21.20;11.30;;;;;;;6.12;80.43;98427.61;106850;1258;96601;-75
2024/03/12 00:15:41;;;;;;;18.60;10.40;;;;;;;6.13;80.35;98425.48;105635;1258;96530;-74
2024/03/12 00:18:10;;;;;;;17.40;9.20;;;;;;;6.14;80.44;98425.42;105404;1257;109390;-74
2024/03/12 00:20:39;;;;;;;21.60;11.10;;;;;;;6.14;80.38;98420.14;105423;1256;96503;-77
2024/03/12 00:23:07;;;;;;;22.00;10.90;;;;;;;6.14;80.28;98421.36;105328;1259;108285;-76
2024/03/12 00:25:36;;;;;;;17.80;10.00;;;;;;;6.14;80.43;98419.06;105460;1258;97519;-74
2024/03/12 00:28:05;;;;;;;19.00;9.80;;;;;;;6.14;80.49;98413.75;105527;1257;96600;-78
2024/03/12 00:30:34;;;;;;;19.70;10.00;;;;;;;6.15;80.32;98411.61;105419;1257;110016;-75
2024/03/12 00:33:02;;;;;;;21.70;11.70;;;;;;;6.15;80.54;98412.67;105542;1257;97535;-75
2024/03/12 00:35:32;;;;;;;20.90;10.60;;;;;;;6.13;80.31;98407.83;105421;1268;107615;-74
2024/03/12 00:38:04;;;;;;;17.90;8.80;;;;;;;6.13;80.54;98406.78;105225;1258;97653;-74
2024/03/12 00:40:36;;;;;;;19.10;10.50;;;;;;;6.12;80.44;98407.04;105618;1259;96516;-75
2024/03/12 00:43:06;;;;;;;;;;;;;;;6.12;80.31;98410.92;105513;1257;109920;-74
2024/03/12 00:45:38;;;;;;;17.80;10.20;;;;;;;6.09;80.65;98410.38;105519;1257;96598;-75
2024/03/12 00:48:09;;;;;;;19.40;10.50;;;;;;;6.10;80.46;98408.76;105292;1259;107089;-74
2024/03/12 00:50:39;;;;;;;19.70;10.70;;;;;;;6.10;80.47;98405.73;105334;1258;96602;-75
2024/03/12 00:53:07;;;;;;;18.30;10.20;;;;;;;6.09;80.42;98405.99;105413;1257;97852;-74
2024/03/12 00:55:36;;;;;;;20.50;10.80;;;;;;;6.09;80.43;98403.69;105581;1257;109388;-75
2024/03/12 00:58:10;;;;;;;21.90;11.60;;;;;;;6.08;80.38;98405.84;105205;1256;97396;-74
2024/03/12 01:00:40;;;;;;;18.20;10.00;;;;;;;6.09;80.54;98403.89;105489;1265;107667;-74
2024/03/12 01:03:09;;;;;;;17.70;9.90;;;;;;;6.09;80.58;98404.02;105771;1266;96611;-74
2024/03/12 01:05:38;;;;;;;19.00;10.60;;;;;;;6.10;80.46;98402.05;105620;1256;97292;-75
2024/03/12 01:08:07;;;;;;;17.20;9.50;;;;;;;6.10;80.69;98400.83;105569;1257;109896;-74
2024/03/12 01:10:36;;;;;;;17.60;9.30;;;;;;;6.10;80.55;98398.88;105772;1259;97478;-75
2024/03/12 01:13:11;;;;;;;19.20;10.90;;;;;;;6.09;80.65;98393.98;105460;1267;107341;-73
2024/03/12 01:15:39;;;;;;;19.30;10.50;;;;;;;6.09;80.40;98387.86;105269;1266;96508;-74
2024/03/12 01:18:08;;;;;;;21.00;11.10;;;;;;;6.09;80.56;98389.80;105404;1257;96535;-74
2024/03/12 01:20:37;;;;;;;17.60;10.00;;;;;;;6.09;80.76;98390.88;105423;1256;110599;-76
2024/03/12 01:23:05;;;;;;;24.00;10.70;;;;;;;6.08;80.49;98384.77;105373;1258;96683;-78
2024/03/12 01:25:35;;;;;;;15.80;8.80;;;;;;;6.07;80.47;98383.60;105246;1266;107616;-75
2024/03/12 01:28:05;;;;;;;18.30;10.50;;;;;;;6.06;80.53;98383.98;105429;1257;96615;-75
2024/03/12 01:30:36;;;;;;;16.40;8.50;;;;;;;6.06;80.70;98385.23;105470;1257;96638;-75
2024/03/12 01:33:08;;;;;;;16.20;9.50;;;;;;;6.06;80.47;98381.15;105566;1257;110010;-76
2024/03/12 01:35:37;;;;;;;16.80;9.80;;;;;;;6.05;80.58;98379.67;105341;1268;96608;-79
2024/03/12 01:38:08;;;;;;;16.40;8.70;;;;;;;6.05;80.65;98379.33;105589;1256;107603;-74
2024/03/12 01:40:41;;;;;;;18.30;9.80;;;;;;;6.05;80.59;98380.70;105422;1257;97836;-75
2024/03/12 01:43:10;;;;;;;20.30;10.30;;;;;;;6.05;80.54;98374.21;105519;1256;96527;-75
2024/03/12 01:45:38;;;;;;;17.70;9.70;;;;;;;6.03;80.46;98376.41;105564;1256;110152;-75
2024/03/12 01:48:08;;;;;;;17.50;9.90;;;;;;;6.03;80.48;98378.71;105583;1254;96603;-79
2024/03/12 01:50:38;;;;;;;20.10;10.80;;;;;;;6.03;80.64;98378.23;105492;1267;107282;-75
2024/03/12 01:53:07;;;;;;;19.00;10.20;;;;;;;6.01;80.54;98373.77;105502;1258;96506;-75
2024/03/12 01:55:38;;;;;;;19.00;9.80;;;;;;;6.00;80.62;98375.39;105323;1255;96681;-75
2024/03/12 01:58:06;;;;;;;16.60;8.90;;;;;;;6.00;80.59;98376.31;105470;1257;109092;-75
2024/03/12 02:00:34;;;;;;;16.90;10.60;;;;;;;6.00;80.63;98375.56;105475;1257;96595;-75
2024/03/12 02:03:03;;;;;;;20.00;10.80;;;;;;;5.99;80.43;98371.77;105713;1254;107449;-76
2024/03/12 02:05:32;;;;;;;21.60;10.00;;;;;;;5.97;80.63;98366.58;105448;1255;96700;-74
2024/03/12 02:08:01;;;;;;;17.70;10.10;;;;;;;5.97;80.70;98363.25;105580;1257;96586;-76
2024/03/12 02:10:29;;;;;;;19.80;10.80;;;;;;;5.97;80.61;98365.91;105518;1267;109717;-75
2024/03/12 02:12:57;;;;;;;18.70;10.50;;;;;;;5.97;80.69;98365.91;105250;1259;96620;-75
2024/03/12 02:15:25;;;;;;;16.30;9.30;;;;;;;5.96;80.66;98365.42;105725;1257;107093;-76
2024/03/12 02:17:53;;;;;;;18.30;9.00;;;;;;;5.96;80.80;98361.36;105459;1258;96671;-74
2024/03/12 02:20:22;;;;;;;17.40;9.10;;;;;;;5.95;80.81;98359.85;105509;1257;97521;-76
2024/03/12 02:22:53;;;;;;;18.50;10.10;;;;;;;5.94;80.71;98357.78;105678;1256;110583;-75
2024/03/12 02:25:21;;;;;;;21.20;10.00;;;;;;;5.93;80.69;98356.98;105487;1267;96592;-77
2024/03/12 02:27:50;;;;;;;17.60;9.70;;;;;;;5.92;80.83;98352.99;105428;1259;107129;-74
2024/03/12 02:30:18;;;;;;;18.00;8.90;;;;;;;5.93;80.71;98357.16;105492;1257;96600;-75
2024/03/12 02:32:47;;;;;;;16.40;9.70;;;;;;;5.94;80.79;98359.21;105354;1266;96613;-76
2024/03/12 02:35:16;;;;;;;17.00;9.20;;;;;;;5.95;80.86;98354.25;105468;1257;110785;-75
2024/03/12 02:37:44;;;;;;;15.80;9.60;;;;;;;5.96;80.78;98353.24;105428;1263;96814;-75
2024/03/12 02:40:13;;;;;;;14.80;8.60;;;;;;;5.97;80.95;98356.02;105329;1266;108387;-75
2024/03/12 02:42:43;;;;;;;16.50;8.60;;;;;;;5.98;80.79;98355.99;105433;1257;96610;-75
2024/03/12 02:45:15;;;;;;;17.70;9.20;;;;;;;5.98;80.81;98353.89;105390;1257;97535;-74
2024/03/12 02:47:45;;;;;;;15.10;8.20;;;;;;;5.99;80.99;98350.30;105405;1254;109957;-73
2024/03/12 02:50:18;;;;;;;16.60;9.00;;;;;;;5.99;80.96;98349.40;105560;1268;97817;-75
2024/03/12 02:52:46;;;;;;;14.60;8.20;;;;;;;5.99;80.94;98347.65;105448;1258;107648;-75
2024/03/12 02:55:14;;;;;;;16.40;9.70;;;;;;;5.99;80.81;98348.56;105373;1253;96596;-76
2024/03/12 02:57:43;;;;;;;14.00;8.70;;;;;;;5.98;80.91;98351.25;105219;1258;96625;-74
2024/03/12 03:00:11;;;;;;;16.90;10.00;;;;;;;5.97;81.08;98348.64;105384;1257;109716;-74
2024/03/12 03:02:43;;;;;;;18.40;9.80;;;;;;;5.98;80.97;98351.73;105108;1270;96617;-74
2024/03/12 03:05:13;;;;;;;14.40;7.90;;;;;;;5.99;81.11;98351.31;105401;1266;107706;-75
2024/03/12 03:07:41;;;;;;;17.50;8.80;;;;;;;6.00;80.98;98352.00;105616;1256;96585;-74
2024/03/12 03:10:10;;;;;;;14.90;8.20;;;;;;;6.00;80.86;98348.47;105351;1259;96612;-76
2024/03/12 03:12:41;;;;;;;14.90;9.20;;;;;;;6.00;80.92;98345.15;105210;1258;111612;-75
2024/03/12 03:15:13;;;;;;;13.80;7.30;;;;;;;5.99;80.91;98349.95;105364;1255;96613;-75
2024/03/12 03:17:42;;;;;;;16.70;9.00;;;;;;;5.98;80.74;98348.92;105520;1270;107708;-77
2024/03/12 03:20:12;;;;;;;15.00;8.60;;;;;;;5.97;80.77;98346.69;105325;1267;97915;-79
2024/03/12 03:22:43;;;;;;;14.50;8.20;;;;;;;5.96;80.94;98351.15;105413;1254;96588;-77
2024/03/12 03:25:14;;;;;;;12.60;7.60;;;;;;;5.95;80.96;98350.99;105483;1257;110717;-75
2024/03/12 03:27:43;;;;;;;13.20;8.20;;;;;;;5.96;80.81;98352.37;105352;1258;97496;-75
2024/03/12 03:30:17;;;;;;;14.70;8.60;;;;;;;5.95;80.96;98353.48;105324;1258;107654;-74
2024/03/12 03:32:47;;;;;;;14.50;8.10;;;;;;;5.95;81.04;98353.30;105486;1257;96651;-75
2024/03/12 03:35:17;;;;;;;19.10;8.80;;;;;;;5.96;81.07;98349.25;105362;1257;96744;-78
2024/03/12 03:37:46;;;;;;;14.80;8.30;;;;;;;5.96;80.92;98349.76;105476;1254;110778;-75
2024/03/12 03:40:23;;;;;;;16.50;9.30;;;;;;;5.95;80.99;98348.77;105504;1254;96673;-77
2024/03/12 03:42:55;;;;;;;12.30;7.60;;;;;;;5.93;81.05;98348.90;105485;1267;107617;-76
2024/03/12 03:45:24;;;;;;;18.50;9.60;;;;;;;5.92;80.82;98347.18;105691;1254;96593;-75
2024/03/12 03:47:52;;;;;;;14.10;8.60;;;;;;;5.91;80.98;98347.27;105526;1254;96604;-76
2024/03/12 03:50:20;;;;;;;15.30;8.30;;;;;;;5.89;81.09;98350.55;105185;1260;110615;-77
2024/03/12 03:52:48;;;;;;;16.80;8.40;;;;;;;5.90;81.18;98348.05;105282;1258;96563;-75
2024/03/12 03:55:16;;;;;;;13.60;7.90;;;;;;;5.89;81.07;98350.38;105505;1257;107629;-76
2024/03/12 03:57:44;;;;;;;14.00;9.10;;;;;;;5.88;81.01;98352.59;105418;1254;96609;-81
2024/03/12 04:00:12;;;;;;;15.10;7.70;;;;;;;5.86;80.96;98353.06;105350;1255;96582;-75
2024/03/12 04:02:44;;;;;;;13.10;7.70;;;;;;;5.85;80.96;98347.69;105277;1254;110860;-74
2024/03/12 04:05:12;;;;;;;13.10;7.40;;;;;;;5.84;80.93;98348.41;105539;1258;96603;-76
2024/03/12 04:07:43;;;;;;;14.30;8.00;;;;;;;5.85;81.08;98344.88;105403;1257;106585;-75
2024/03/12 04:10:12;;;;;;;14.00;8.00;;;;;;;5.83;80.96;98341.44;105117;1254;96646;-79
2024/03/12 04:12:44;;;;;;;15.40;8.30;;;;;;;5.81;81.07;98341.04;105393;1254;96517;-73
2024/03/12 04:15:14;;;;;;;12.10;7.40;;;;;;;5.82;81.06;98342.04;105496;1253;109955;-78
2024/03/12 04:17:43;;;;;;;15.00;8.00;;;;;;;5.80;81.13;98338.45;105458;1257;97074;-76
2024/03/12 04:20:12;;;;;;;16.10;8.80;;;;;;;5.79;81.15;98334.13;105480;1254;107600;-75
2024/03/12 04:22:45;;;;;;;12.50;6.70;;;;;;;5.78;81.11;98332.63;105494;1268;96654;-74
2024/03/12 04:25:15;;;;;;;14.10;7.20;;;;;;;5.77;81.21;98335.29;105262;1255;97189;-74
2024/03/12 04:27:44;;;;;;;16.30;9.40;;;;;;;5.78;80.99;98339.85;105508;1254;108591;-74
2024/03/12 04:30:13;;;;;;;16.70;8.80;;;;;;;5.77;81.12;98346.02;105423;1257;97900;-75
2024/03/12 04:32:41;;;;;;;14.90;8.70;;;;;;;5.78;81.29;98349.29;105389;1266;107603;-74
2024/03/12 04:35:12;;;;;;;15.70;7.80;;;;;;;5.80;81.08;98352.05;105396;1257;97052;-74
2024/03/12 04:37:40;;;;;;;13.70;8.40;;;;;;;5.79;81.07;98342.73;105416;1257;96566;-75
2024/03/12 04:40:11;;;;;;;15.50;9.20;;;;;;;5.80;81.16;98342.16;105531;1256;109133;-75
2024/03/12 04:42:43;;;;;;;14.90;8.50;;;;;;;5.79;81.13;98339.27;105359;1257;96593;-75
2024/03/12 04:45:11;;;;;;;14.10;8.00;;;;;;;5.78;81.01;98341.41;105564;1257;107600;-78
2024/03/12 04:47:40;;;;;;;19.30;8.70;;;;;;;5.78;81.15;98345.08;105175;1268;96524;-74
2024/03/12 04:50:13;;;;;;;15.80;8.20;;;;;;;5.78;81.12;98351.98;105518;1254;96599;-74
2024/03/12 04:52:42;;;;;;;14.00;8.50;;;;;;;5.78;81.10;98353.90;105596;1253;109881;-77
2024/03/12 04:55:10;;;;;;;16.10;9.10;;;;;;;5.79;81.20;98354.71;105184;1254;96649;-75
2024/03/12 04:57:38;;;;;;;17.30;8.40;;;;;;;5.80;81.35;98355.38;105157;1257;107631;-74
2024/03/12 05:00:18;;;;;;;17.40;8.90;;;;;;;5.81;81.32;98354.96;105241;1257;96685;-81
2024/03/12 05:02:50;;;;;;;15.30;8.60;;;;;;;5.80;81.35;98360.45;105520;1267;96552;-75
2024/03/12 05:05:23;;;;;;;15.20;7.80;;;;;;;5.81;81.12;98368.50;105388;1257;109071;-78
2024/03/12 05:07:51;;;;;;;14.80;8.90;;;;;;;5.83;81.07;98371.40;105217;1254;96605;-76
2024/03/12 05:10:22;;;;;;;17.00;8.90;;;;;;;5.85;81.28;98372.48;105610;1256;107655;-78
2024/03/12 05:12:51;;;;;;;16.70;9.60;;;;;;;5.86;81.21;98369.63;105568;1257;97806;-74
2024/03/12 05:15:21;;;;;;;16.10;8.90;;;;;;;5.86;81.35;98369.39;105456;1257;96639;-80
2024/03/12 05:17:50;;;;;;;17.90;10.40;;;;;;;5.88;81.27;98372.45;105271;1256;109912;-76
2024/03/12 05:20:22;;;;;;;18.70;9.80;;;;;;;5.90;81.34;98375.33;105460;1273;97431;-75
2024/03/12 05:22:51;;;;;;;15.70;9.70;;;;;;;5.90;81.24;98379.02;105383;1258;106801;-76
2024/03/12 05:25:38;;;;;;;15.50;9.20;;;;;;;5.90;81.41;98380.05;105418;1257;97883;-74
2024/03/12 05:28:09;;;;;;;18.90;9.80;;;;;;;5.92;81.45;98384.54;108674;1253;94350;-74
2024/03/12 05:31:32;;;;;;;;;;;;;;;;;;;;;
2024/03/12 05:35:18;;;;;;;20.10;8.80;;;;;;;5.93;81.28;98379.17;106503;1263;98031;-77
2024/03/12 05:48:39;;;;;;;20.40;10.50;;;;;;;5.96;81.41;98393.58;105257;1253;110350;-75
2024/03/12 05:51:08;;;;;;;16.70;9.50;;;;;;;5.99;81.17;98397.65;105339;1257;96717;-76
2024/03/12 05:53:37;;;;;;;19.50;10.40;;;;;;;5.99;81.17;98394.45;105408;1257;108615;-74
2024/03/12 05:56:09;;;;;;;18.60;10.40;;;;;;;6.01;81.38;98397.20;105211;1256;96645;-78
2024/03/12 05:58:39;;;;;;;15.60;9.90;;;;;;;6.01;81.26;98396.98;105319;1254;96715;-75
2024/03/12 06:01:07;;;;;;;22.20;10.70;;;;;;;6.01;81.19;98392.77;105569;1254;109077;-77
2024/03/12 06:03:41;;;;;;;20.20;9.80;;;;;;;6.01;81.48;98389.61;105278;1255;96609;-79
2024/03/12 06:06:09;;;;;;;19.70;10.30;;;;;;;6.02;81.34;98391.45;105627;1269;107586;-79
2024/03/12 06:08:41;;;;;;;21.80;10.80;;;;;;;6.04;81.42;98395.73;105475;1257;97506;-79
2024/03/12 06:11:10;;;;;;;19.00;10.40;;;;;;;6.06;81.40;98396.52;105273;1258;96622;-79
2024/03/12 06:13:41;;;;;;;19.50;10.90;;;;;;;6.07;81.44;98401.16;105554;1257;109784;-80
2024/03/12 06:16:11;;;;;;;22.70;11.60;;;;;;;6.08;81.56;98400.42;105349;1258;97377;-80
2024/03/12 06:18:40;;;;;;;20.70;11.00;;;;;;;6.07;81.25;98404.86;105548;1258;107703;-78
2024/03/12 06:21:11;;;;;;;22.90;11.10;;;;;;;6.07;81.36;98401.20;105594;1258;96592;-79
2024/03/12 06:23:39;;;;;;;23.50;12.10;;;;;;;6.06;81.49;98398.07;105604;1257;96651;-79
2024/03/12 06:26:09;;;;;;;20.50;11.60;;;;;;;6.07;81.42;98401.88;105601;1253;111509;-80
2024/03/12 06:28:42;;;;;;;21.80;11.90;;;;;;;6.07;81.31;98398.20;105288;1267;97984;-80
2024/03/12 06:31:11;;;;;;;24.80;11.10;;;;;;;6.05;81.47;98398.64;105288;1258;107266;-79
2024/03/12 06:33:49;;;;;;;24.20;11.50;;;;;;;6.05;81.34;98401.85;105341;1255;96593;-79
2024/03/12 06:36:49;;;;;;;24.70;11.40;;;;;;;6.04;81.45;98405.60;105462;1253;96614;-81
2024/03/12 06:39:41;;;;;;;27.00;13.30;;;;;;;6.04;81.44;98409.31;105496;1257;109357;-79
2024/03/12 06:42:19;;;;;;;20.00;11.10;;;;;;;6.04;81.35;98412.84;105302;1257;96730;-80
2024/03/12 06:45:18;;;;;;;22.60;11.80;;;;;;;6.03;81.41;98411.13;105308;1255;105528;-79
2024/03/12 06:48:36;;;;;;;23.50;12.80;;;;;;;6.05;81.55;98412.97;105232;1261;96657;-80
2024/03/12 06:51:53;;;;;;;;;;;;;;;;;;;;;
2024/03/12 06:55:32;;;;;;;21.30;11.20;;;;;;;6.03;81.46;98415.84;105169;1254;109756;-79
2024/03/12 06:58:21;;;;;;;24.80;11.60;;;;;;;6.08;81.82;98418.38;105159;1261;96525;-78
2024/03/12 07:01:29;;;;;;;20.90;11.00;;;;;;;6.11;81.52;98426.77;105174;1258;108322;-79
2024/03/12 07:04:35;;;;;;;27.00;11.90;;;;;;;6.13;81.49;98421.58;105141;1258;97535;-80
2024/03/12 07:07:06;;;;;;;18.70;9.00;;;;;;;6.14;81.66;98421.54;105274;1255;97915;-78
2024/03/12 07:10:05;;;;;;;24.90;11.10;;;;;;;6.18;81.54;98426.91;105156;1254;109709;-79
2024/03/12 07:12:45;;;;;;;23.70;12.00;;;;;;;6.17;81.61;98426.74;105184;1258;96608;-80
2024/03/12 07:15:59;;;;;;;25.40;11.60;;;;;;;6.18;81.57;98420.57;105206;1260;109847;-79
2024/03/12 07:18:52;;;;;;;20.30;10.10;;;;;;;6.18;81.50;98420.90;105139;1258;96632;-80
2024/03/12 07:21:34;;;;;;;22.70;11.60;;;;;;;6.20;81.62;98428.33;105095;1254;96614;-79
2024/03/12 07:24:43;;;;;;;23.30;11.20;;;;;;;6.20;81.69;98431.52;105070;1258;108956;-80
2024/03/12 07:27:41;;;;;;;21.40;11.50;;;;;;;6.20;81.49;98430.13;105022;1254;96601;-78
2024/03/12 07:30:34;;;;;;;20.20;10.30;;;;;;;6.20;81.72;98429.20;105039;1258;107658;-78
2024/03/12 07:33:24;;;;;;;17.40;9.50;;;;;;;6.20;81.66;98431.13;105209;1261;96787;-79
2024/03/12 07:36:43;;;;;;;25.00;11.90;;;;;;;6.21;81.68;98431.24;105067;1265;96701;-78
2024/03/12 07:39:34;;;;;;;22.70;11.20;;;;;;;6.21;81.66;98426.00;105476;1257;111385;-79
2024/03/12 07:42:39;;;;;;;18.90;9.10;;;;;;;6.18;81.55;98429.19;105229;1267;96534;-79
2024/03/12 07:46:07;;;;;;;;;;;;;;;;;;;;;
2024/03/12 07:53:05;;;;;;;25.30;12.60;;;;;;;6.15;81.51;98429.01;104555;1260;97532;-79
2024/03/12 07:55:36;;;;;;;21.40;10.70;;;;;;;6.15;81.56;98435.17;104717;1260;109403;-79
2024/03/12 07:58:20;;;;;;;24.50;10.90;;;;;;;6.17;81.66;98435.20;105396;1254;96964;-78
2024/03/12 08:02:11;;;;;;;23.50;11.70;;;;;;;6.21;81.68;98437.98;105318;1258;108186;-79
2024/03/12 08:05:14;;;;;;;25.30;11.70;;;;;;;6.19;81.74;98443.73;105267;1255;97374;-80
2024/03/12 08:08:18;;;;;;;19.00;10.30;;;;;;;6.22;81.71;98449.88;105166;1259;97531;-78
2024/03/12 08:15:11;;;;;;;;;;;;;;;;;;;;;
2024/03/12 08:18:29;;;;;;;18.30;9.30;;;;;;;6.21;81.59;98457.30;106151;1261;109241;-78
2024/03/12 08:21:13;;;;;;;17.40;9.00;;;;;;;6.25;81.88;98457.77;106188;1261;97195;-80
2024/03/12 08:24:01;;;;;;;20.80;10.30;;;;;;;6.27;81.90;98454.15;105292;1259;97848;-80
2024/03/12 08:26:50;;;;;;;21.50;10.70;;;;;;;6.31;81.87;98459.17;105341;1256;109603;-79
2024/03/12 08:29:29;;;;;;;18.50;9.10;;;;;;;6.33;81.95;98457.78;105137;1256;96590;-79
2024/03/12 08:32:35;;;;;;;17.00;9.40;;;;;;;6.34;81.98;98452.94;105245;1259;106686;-79
2024/03/12 08:35:20;;;;;;;16.30;10.40;;;;;;;6.37;81.97;98454.88;104987;1259;97623;-79
2024/03/12 08:37:54;;;;;;;18.60;10.40;;;;;;;6.39;81.95;98456.84;104989;1261;97314;-79
2024/03/12 08:40:53;;;;;;;;;;;;;;;;;;;;;
2024/03/12 08:43:29;;;;;;;20.40;10.80;;;;;;;6.45;81.81;98455.80;105000;1259;96515;-79
2024/03/12 08:46:23;;;;;;;17.70;10.30;;;;;;;6.44;81.98;98454.95;104996;1254;108042;-81
2024/03/12 08:49:23;;;;;;;;;;;;;;;;;;;;;
2024/03/12 08:52:12;;;;;;;17.60;10.40;;;;;;;6.47;81.88;98454.77;104976;1272;96633;-78
2024/03/12 08:55:11;;;;;;;19.70;10.40;;;;;;;6.50;81.92;98455.66;105183;1255;109805;-80
2024/03/12 08:58:06;;;;;;;;;;;;;;;;;;;;;
2024/03/12 09:00:39;;;;;;;17.00;9.30;;;;;;;6.53;81.91;98457.36;105122;1259;108286;-79
2024/03/12 09:03:57;;;;;;;14.90;8.50;;;;;;;6.55;81.99;98458.11;105393;1256;96619;-78
2024/03/12 09:06:28;;;;;;;17.70;10.00;;;;;;;6.56;81.86;98455.75;105388;1258;96712;-79
2024/03/12 09:09:02;;;;;;;20.10;10.20;;;;;;;6.57;81.92;98454.79;105339;1258;109864;-79
2024/03/12 09:11:55;;;;;;;13.30;8.40;;;;;;;6.58;81.82;98454.39;105102;1258;96740;-79
2024/03/12 09:14:40;;;;;;;18.40;9.30;;;;;;;6.61;81.95;98458.13;105265;1257;107882;-81
2024/03/12 09:17:17;;;;;;;16.10;9.30;;;;;;;6.61;82.08;98461.06;105190;1258;96533;-79
2024/03/12 09:19:52;;;;;;;16.10;9.20;;;;;;;6.63;82.05;98463.57;105606;1253;97902;-81
2024/03/12 09:22:44;;;;;;;17.00;9.80;;;;;;;6.68;82.07;98466.45;105292;1254;109918;-80
2024/03/12 09:25:54;;;;;;;15.60;9.30;;;;;;;6.72;82.09;98463.38;105315;1267;97517;-79
2024/03/12 09:28:51;;;;;;;17.20;10.20;;;;;;;6.76;82.09;98468.20;105092;1254;108147;-79
2024/03/12 09:31:33;;;;;;;21.70;10.60;;;;;;;6.79;81.99;98465.00;104982;1257;96689;-79
2024/03/12 09:34:22;;;;;;;18.30;9.80;;;;;;;6.81;82.08;98463.45;105207;1258;97931;-80
2024/03/12 09:37:00;;;;;;;18.50;10.30;;;;;;;6.86;81.96;98463.66;105052;1266;109713;-80
2024/03/12 09:39:45;;;;;;;16.90;8.90;;;;;;;6.90;82.01;98461.85;105008;1259;97502;-79
2024/03/12 09:42:31;;;;;;;19.10;10.60;;;;;;;6.93;82.12;98454.55;105230;1257;107787;-78
2024/03/12 09:45:13;;;;;;;17.90;9.80;;;;;;;7.01;82.13;98455.48;104962;1260;97540;-78
2024/03/12 09:48:16;;;;;;;15.20;9.00;;;;;;;7.07;82.08;98458.06;105231;1255;96625;-80
2024/03/12 09:51:01;;;;;;;15.00;9.40;;;;;;;7.11;82.10;98458.63;105147;1257;111299;-78
2024/03/12 09:54:08;;;;;;;16.60;9.50;;;;;;;7.14;82.21;98458.43;105075;1258;96734;-79
2024/03/12 09:56:54;;;;;;;17.00;9.70;;;;;;;7.19;82.07;98463.04;105030;1259;107112;-79
2024/03/12 09:59:42;;;;;;;18.70;10.40;;;;;;;7.21;82.01;98462.73;105065;1259;96601;-79
2024/03/12 10:02:26;;;;;;;19.00;10.10;;;;;;;7.23;82.02;98465.08;104904;1261;96549;-78
2024/03/12 10:05:15;;;;;;;18.60;10.80;;;;;;;7.22;81.98;98460.20;105309;1254;110342;-78
2024/03/12 10:08:28;;;;;;;19.70;11.20;;;;;;;7.21;81.97;98465.90;105294;1257;96613;-79
2024/03/12 10:11:14;;;;;;;17.70;9.90;;;;;;;7.20;81.81;98470.73;104998;1259;110057;-79
2024/03/12 10:14:04;;;;;;;22.40;10.90;;;;;;;7.22;81.95;98473.96;105041;1257;97527;-78
2024/03/12 10:16:45;;;;;;;19.50;11.50;;;;;;;7.20;82.07;98472.98;105183;1254;96601;-79
2024/03/12 10:19:25;;;;;;;20.40;10.80;;;;;;;7.22;82.23;98469.17;105219;1255;109887;-78
2024/03/12 10:22:32;;;;;;;15.80;8.90;;;;;;;7.24;82.16;98474.52;105133;1258;96598;-78
2024/03/12 10:25:17;;;;;;;21.20;11.40;;;;;;;7.24;82.02;98470.66;105184;1259;107750;-78
2024/03/12 10:28:32;;;;;;;19.20;11.10;;;;;;;7.22;82.08;98469.04;105050;1255;96611;-79
2024/03/12 10:31:50;;;;;;;28.00;14.70;;;;;;;7.23;82.18;98468.91;105239;1256;96540;-77
2024/03/12 10:34:42;;;;;;;31.80;18.00;;;;;;;7.25;82.03;98470.05;105332;1258;109919;-79
2024/03/12 10:37:50;;;;;;;28.40;14.60;;;;;;;7.26;82.08;98466.08;105401;1256;97956;-80
2024/03/12 10:40:26;;;;;;;25.40;12.90;;;;;;;7.27;82.07;98467.27;105209;1257;107663;-78
2024/03/12 10:43:06;;;;;;;35.40;18.70;;;;;;;7.29;82.15;98469.73;105126;1257;98004;-78
2024/03/12 10:45:56;;;;;;;26.80;13.80;;;;;;;7.28;81.98;98468.27;105131;1258;96691;-79
2024/03/12 10:48:30;;;;;;;25.20;13.90;;;;;;;7.29;82.02;98467.64;105272;1254;109958;-79
2024/03/12 10:51:21;;;;;;;26.20;14.50;;;;;;;7.28;82.02;98465.91;105060;1271;96687;-79
2024/03/12 10:53:57;;;;;;;24.90;12.80;;;;;;;7.29;82.17;98469.08;105212;1259;108048;-79
2024/03/12 10:56:37;;;;;;;29.60;16.40;;;;;;;7.30;82.17;98469.35;105023;1263;97922;-78
2024/03/12 10:59:16;;;;;;;24.10;13.20;;;;;;;7.29;81.97;98471.17;105175;1259;96608;-80
2024/03/12 11:14:41;;;;;;;21.60;13.30;;;;;;;7.63;81.69;98460.91;102674;1283;649617;-79
2024/03/12 11:17:47;;;;;;;20.30;11.70;;;;;;;7.56;81.65;98463.14;98306;1261;9349883;-79
2024/03/12 11:20:50;;;;;;;23.40;11.60;;;;;;;7.47;81.91;98460.61;104698;1265;94818;-80
2024/03/12 11:23:49;;;;;;;21.20;11.40;;;;;;;7.43;82.00;98460.48;105160;1263;107124;-79
2024/03/12 11:26:54;;;;;;;22.10;11.50;;;;;;;7.42;82.05;98457.77;104875;1262;94482;-79
2024/03/12 11:30:31;;;;;;;21.00;11.70;;;;;;;7.37;81.77;98456.73;104832;1262;94403;-81
2024/03/12 11:42:46;;;;;;;;;;;;;;;;;;;;;
2024/03/12 11:51:04;;;;;;;21.40;10.60;;;;;;;7.45;82.04;98443.61;105026;1260;95367;-78
2024/03/12 11:54:36;;;;;;;22.10;12.30;;;;;;;7.44;81.97;98448.29;104886;1256;109303;-79
2024/03/12 11:58:40;;;;;;;;;;;;;;;;;;;;;
2024/03/12 12:02:28;;;;;;;;;;;;;;;;;;;;;
2024/03/12 12:10:33;;;;;;;20.10;10.60;;;;;;;7.59;82.21;98432.96;104798;1262;96166;-79
2024/03/12 12:13:46;;;;;;;18.90;11.10;;;;;;;7.66;82.12;98440.27;105024;1265;109055;-79
2024/03/12 12:17:53;;;;;;;23.10;12.40;;;;;;;7.67;82.12;98437.67;105578;1260;96452;-78
2024/03/12 12:21:58;;;;;;;20.20;10.90;;;;;;;7.67;81.98;98437.69;104988;1264;109317;-78
2024/03/12 12:26:18;;;;;;;20.40;11.10;;;;;;;7.68;82.18;98434.09;105488;1255;95241;-78
2024/03/12 12:30:32;;;;;;;;;;;;;;;;;;;;;
2024/03/12 12:42:27;;;;;;;20.30;11.00;;;;;;;7.69;81.87;98426.95;104882;1265;108343;-79
2024/03/12 12:46:27;;;;;;;;;;;;;;;;;;;;;
2024/03/12 12:50:22;;;;;;;19.20;9.90;;;;;;;7.68;81.95;98421.02;104189;1272;95383;-79
2024/03/12 12:53:51;;;;;;;20.90;10.80;;;;;;;7.72;81.94;98426.20;103728;1276;109639;-79
2024/03/12 12:57:40;;;;;;;;;;;;;;;;;;;;;
2024/03/12 13:10:01;;;;;;;18.30;10.30;;;;;;;7.74;81.97;98445.29;104198;1277;95443;-78
2024/03/12 13:13:25;;;;;;;20.50;10.10;;;;;;;7.75;81.99;98445.40;104966;1266;108948;-78
2024/03/12 13:20:33;;;;;;;19.10;10.80;;;;;;;7.75;81.88;98434.62;103918;1280;108080;-78
2024/03/12 13:24:24;;;;;;;;;;;;;;;;;;;;;
2024/03/12 13:27:37;;;;;;;;;;;;;;;7.70;81.77;98438.16;104752;1273;95434;-79
2024/03/12 13:44:24;;;;;;;;;;;;;;;;;;;;;
2024/03/12 13:47:46;;;;;;;22.40;11.50;;;;;;;7.69;81.92;98441.08;105157;1264;95980;-78
2024/03/12 13:51:45;;;;;;;;;;;;;;;;;;;;;
2024/03/12 13:55:11;;;;;;;22.70;14.10;;;;;;;7.68;81.87;98443.81;104527;1265;95226;-78
2024/03/12 13:58:41;;;;;;;;;;;;;;;;;;;;;
2024/03/12 14:02:41;;;;;;;20.40;13.00;;;;;;;7.68;81.72;98439.92;104905;1263;108053;-79
2024/03/12 14:06:38;;;;;;;19.00;10.90;;;;;;;7.69;81.96;98438.59;105289;1264;95451;-79
2024/03/12 14:10:11;;;;;;;19.80;11.50;;;;;;;7.69;81.97;98440.39;104673;1270;107809;-79
2024/03/12 14:14:35;;;;;;;23.50;11.90;;;;;;;7.73;82.16;98445.44;104598;1276;94548;-80
2024/03/12 14:18:12;;;;;;;25.40;13.70;;;;;;;7.72;81.88;98445.94;103190;1283;96975;-79
2024/03/12 14:22:00;;;;;;;;;;;;;;;;;;;;;
2024/03/12 16:49:20;;;;;;;24.50;14.40;;;;;;;7.08;82.62;98484.23;105102;1270;106779;-74
2024/03/12 16:51:48;;;;;;;26.00;13.70;;;;;;;7.07;82.59;98487.30;107211;1253;94782;-74
2024/03/12 16:54:16;;;;;;;27.40;14.80;;;;;;;7.06;82.56;98485.77;107398;1247;107536;-74
2024/03/12 16:56:44;;;;;;;25.80;15.10;;;;;;;7.06;82.57;98490.03;107367;1247;95503;-73
2024/03/12 16:59:11;;;;;;;25.90;15.00;;;;;;;7.04;82.58;98491.36;107288;1244;96092;-72
2024/03/12 17:01:38;;;;;;;24.00;13.80;;;;;;;7.03;82.65;98492.36;107351;1247;95407;-72